createdAt,value
2022-12-03T00:03:52.705Z,1.36
2022-12-03T00:08:06.994Z,1.24
2022-12-03T00:12:19.317Z,1.06
2022-12-03T00:16:32.315Z,0.87
2022-12-03T00:20:51.079Z,0.92
2022-12-03T00:25:03.410Z,0.94
2022-12-03T00:29:25.705Z,0.70
2022-12-03T00:33:47.962Z,0.75
2022-12-03T00:38:00.344Z,0.81
2022-12-03T00:42:12.640Z,0.74
2022-12-03T00:46:27.374Z,0.74
2022-12-03T00:50:39.669Z,0.93
2022-12-03T00:54:52.314Z,0.83
2022-12-03T00:59:04.794Z,0.90
2022-12-03T01:03:17.110Z,0.98
2022-12-03T01:07:29.624Z,0.84
2022-12-03T01:11:42.219Z,0.81
2022-12-03T01:15:54.513Z,0.69
2022-12-03T01:20:08.234Z,0.90
2022-12-03T01:24:21.318Z,0.76
2022-12-03T01:28:33.643Z,0.87
2022-12-03T01:32:45.971Z,0.89
2022-12-03T01:36:58.688Z,0.88
2022-12-03T01:41:12.087Z,0.76
2022-12-03T01:45:24.798Z,0.64
2022-12-03T01:49:42.966Z,0.74
2022-12-03T01:53:55.284Z,0.72
2022-12-03T01:58:20.969Z,0.63
2022-12-03T02:02:33.887Z,0.71
2022-12-03T02:06:46.324Z,0.77
2022-12-03T02:11:03.785Z,0.95
2022-12-03T02:15:16.268Z,1.07
2022-12-03T02:19:32.808Z,0.92
2022-12-03T02:24:06.802Z,0.92
2022-12-03T02:28:29.170Z,0.94
2022-12-03T02:32:41.547Z,0.83
2022-12-03T02:36:53.877Z,0.91
2022-12-03T02:41:32.798Z,0.91
2022-12-03T02:45:48.285Z,0.79
2022-12-03T02:50:01.352Z,1.00
2022-12-03T02:54:13.840Z,0.93
2022-12-03T02:58:27.782Z,0.94
2022-12-03T03:02:42.548Z,0.91
2022-12-03T03:06:54.970Z,0.88
2022-12-03T03:11:07.234Z,0.89
2022-12-03T03:15:19.648Z,0.94
2022-12-03T03:19:31.966Z,0.89
2022-12-03T03:23:44.367Z,0.95
2022-12-03T03:27:56.692Z,0.97
2022-12-03T03:32:09.078Z,1.03
2022-12-03T03:36:21.697Z,0.94
2022-12-03T03:40:34.254Z,0.68
2022-12-03T03:44:56.615Z,0.74
2022-12-03T03:49:08.999Z,0.79
2022-12-03T03:53:22.510Z,0.88
2022-12-03T03:57:34.908Z,0.83
2022-12-03T04:01:47.384Z,0.64
2022-12-03T04:05:59.690Z,0.72
2022-12-03T04:10:39.455Z,0.88
2022-12-03T04:14:52.091Z,0.93
2022-12-03T04:19:04.573Z,0.86
2022-12-03T04:23:29.279Z,1.01
2022-12-03T04:28:01.480Z,1.03
2022-12-03T04:32:32.191Z,0.87
2022-12-03T04:36:54.578Z,0.92
2022-12-03T04:41:07.009Z,0.98
2022-12-03T04:45:19.309Z,1.02
2022-12-03T04:49:32.050Z,1.07
2022-12-03T04:53:46.387Z,0.97
2022-12-03T04:57:58.935Z,1.00
2022-12-03T05:02:21.265Z,0.78
2022-12-03T05:06:33.626Z,1.04
2022-12-03T05:10:45.874Z,0.79
2022-12-03T05:14:58.191Z,0.91
2022-12-03T05:19:20.473Z,0.94
2022-12-03T05:23:32.914Z,0.88
2022-12-03T05:27:55.171Z,0.84
2022-12-03T05:32:07.462Z,0.91
2022-12-03T05:36:19.750Z,1.02
2022-12-03T05:40:32.061Z,0.95
2022-12-03T05:44:44.334Z,0.84
2022-12-03T05:48:56.694Z,0.78
2022-12-03T05:53:09.722Z,0.96
2022-12-03T05:57:21.996Z,0.87
2022-12-03T06:01:35.188Z,0.84
2022-12-03T06:05:47.492Z,0.95
2022-12-03T06:09:59.835Z,1.03
2022-12-03T06:14:12.107Z,0.96
2022-12-03T06:18:24.428Z,0.94
2022-12-03T06:22:36.754Z,1.09
2022-12-03T06:26:49.089Z,1.00
2022-12-03T06:31:01.614Z,1.07
2022-12-03T06:35:17.231Z,1.16
2022-12-03T06:39:29.555Z,1.04
2022-12-03T06:43:51.858Z,1.19
2022-12-03T06:48:04.232Z,1.30
2022-12-03T06:52:25.924Z,1.34
2022-12-03T06:56:44.869Z,1.26
2022-12-03T07:00:57.775Z,1.18
2022-12-03T07:05:10.550Z,1.31
2022-12-03T07:09:22.867Z,1.44
2022-12-03T07:13:35.121Z,1.36
2022-12-03T07:17:47.403Z,1.31
2022-12-03T07:21:59.701Z,1.30
2022-12-03T07:26:12.059Z,1.20
2022-12-03T07:30:26.297Z,1.28
2022-12-03T07:34:38.571Z,1.30
2022-12-03T07:38:50.868Z,1.36
2022-12-03T07:43:03.191Z,1.29
2022-12-03T07:47:15.575Z,1.27
2022-12-03T07:51:32.391Z,1.32
2022-12-03T07:55:44.938Z,1.43
2022-12-03T07:59:57.238Z,1.37
2022-12-03T08:04:12.473Z,1.60
2022-12-03T08:08:25.876Z,1.74
2022-12-03T08:12:42.676Z,1.67
2022-12-03T08:16:55.026Z,1.56
2022-12-03T08:21:14.822Z,1.66
2022-12-03T08:25:30.327Z,1.67
2022-12-03T08:29:42.573Z,1.76
2022-12-03T08:34:00.154Z,1.79
2022-12-03T08:38:13.694Z,1.83
2022-12-03T08:42:42.555Z,1.79
2022-12-03T08:47:02.827Z,1.82
2022-12-03T08:51:26.307Z,1.71
2022-12-03T08:55:40.649Z,1.50
2022-12-03T08:59:58.871Z,1.74
2022-12-03T09:04:39.816Z,1.54
2022-12-03T09:08:52.164Z,1.68
2022-12-03T09:13:04.465Z,1.65
2022-12-03T09:17:17.068Z,1.65
2022-12-03T09:21:29.535Z,1.73
2022-12-03T09:25:43.298Z,1.63
2022-12-03T09:29:56.509Z,1.76
2022-12-03T09:34:09.539Z,1.71
2022-12-03T09:38:23.881Z,1.77
2022-12-03T09:42:46.554Z,1.75
2022-12-03T09:47:01.442Z,2.03
2022-12-03T09:51:13.934Z,1.59
2022-12-03T09:55:28.339Z,1.68
2022-12-03T09:59:40.678Z,1.69
2022-12-03T10:03:53.852Z,1.84
2022-12-03T10:08:09.139Z,1.92
2022-12-03T10:12:25.590Z,1.68
2022-12-03T10:16:40.925Z,2.04
2022-12-03T10:20:54.023Z,2.05
2022-12-03T10:25:15.805Z,2.08
2022-12-03T10:29:37.045Z,2.15
2022-12-03T10:33:59.028Z,2.21
2022-12-03T10:38:17.904Z,2.29
2022-12-03T10:42:35.164Z,2.33
2022-12-03T10:47:06.699Z,2.29
2022-12-03T10:51:23.475Z,2.48
2022-12-03T10:55:41.695Z,2.04
2022-12-03T10:59:53.962Z,2.07
2022-12-03T11:04:06.382Z,2.30
2022-12-03T11:08:33.290Z,2.12
2022-12-03T11:13:23.515Z,1.99
2022-12-03T11:17:44.590Z,1.82
2022-12-03T11:22:06.805Z,1.80
2022-12-03T11:26:40.095Z,1.85
2022-12-03T11:30:52.352Z,1.94
2022-12-03T11:35:25.914Z,2.05
2022-12-03T11:39:50.413Z,2.14
2022-12-03T11:44:06.578Z,2.40
2022-12-03T11:48:27.248Z,2.12
2022-12-03T11:52:43.520Z,2.31
2022-12-03T11:57:26.486Z,1.62
2022-12-03T12:01:43.706Z,1.42
2022-12-03T12:06:22.487Z,1.47
2022-12-03T12:10:49.830Z,1.68
2022-12-03T12:15:34.051Z,1.97
2022-12-03T12:19:51.087Z,1.91
2022-12-03T12:24:47.681Z,1.95
2022-12-03T12:28:59.950Z,1.52
2022-12-03T12:33:17.244Z,1.35
2022-12-03T12:37:48.116Z,1.53
2022-12-03T12:42:01.735Z,1.69
2022-12-03T12:46:46.094Z,1.79
2022-12-03T12:50:49.246Z,1.63
2022-12-03T12:55:04.885Z,1.49
2022-12-03T12:59:25.063Z,1.42
2022-12-03T13:03:40.019Z,1.54
2022-12-03T13:07:53.684Z,1.64
2022-12-03T13:12:18.279Z,1.60
2022-12-03T13:16:33.430Z,1.65
2022-12-03T13:20:45.750Z,1.36
2022-12-03T13:25:01.731Z,1.28
2022-12-03T13:29:19.466Z,1.22
2022-12-03T13:33:32.251Z,1.26
2022-12-03T13:37:45.728Z,1.02
2022-12-03T13:42:38.869Z,1.04
2022-12-03T13:46:51.163Z,0.98
2022-12-03T13:51:33.647Z,1.18
2022-12-03T13:55:48.981Z,1.23
2022-12-03T14:00:01.305Z,1.13
2022-12-03T14:04:13.649Z,1.26
2022-12-03T14:08:25.905Z,0.93
2022-12-03T14:12:38.181Z,1.10
2022-12-03T14:16:58.238Z,1.05
2022-12-03T14:21:11.962Z,1.00
2022-12-03T14:25:24.231Z,0.71
2022-12-03T14:29:36.537Z,0.79
2022-12-03T14:33:48.800Z,0.64
2022-12-03T14:38:01.171Z,0.60
2022-12-03T14:42:16.242Z,0.52
2022-12-03T14:46:34.689Z,0.60
2022-12-03T14:50:46.942Z,0.58
2022-12-03T14:55:09.621Z,0.63
2022-12-03T14:59:27.408Z,0.67
2022-12-03T15:03:40.256Z,0.43
2022-12-03T15:07:52.697Z,0.50
2022-12-03T15:12:05.571Z,0.70
2022-12-03T15:16:17.895Z,0.59
2022-12-03T15:20:30.594Z,0.51
2022-12-03T15:24:42.855Z,0.61
2022-12-03T15:28:55.132Z,0.45
2022-12-03T15:33:07.475Z,0.35
2022-12-03T15:37:20.273Z,0.47
2022-12-03T15:41:32.615Z,0.27
2022-12-03T15:45:45.230Z,0.37
2022-12-03T15:49:57.564Z,0.39
2022-12-03T15:54:19.863Z,0.41
2022-12-03T15:58:32.140Z,0.47
2022-12-03T16:02:50.816Z,0.47
2022-12-03T16:07:14.807Z,0.31
2022-12-03T16:11:28.163Z,0.42
2022-12-03T16:15:40.479Z,0.49
2022-12-03T16:19:53.137Z,0.56
2022-12-03T16:24:06.087Z,0.58
2022-12-03T16:28:19.707Z,0.44
2022-12-03T16:32:31.986Z,0.43
2022-12-03T16:36:46.464Z,0.66
2022-12-03T16:40:58.740Z,0.47
2022-12-03T16:45:41.416Z,0.48
2022-12-03T16:49:53.883Z,0.40
2022-12-03T16:54:06.373Z,0.41
2022-12-03T16:58:21.971Z,0.53
2022-12-03T17:02:34.388Z,0.44
2022-12-03T17:06:46.686Z,0.66
2022-12-03T17:10:59.075Z,0.57
2022-12-03T17:15:11.810Z,0.47
2022-12-03T17:19:34.145Z,0.52
2022-12-03T17:23:49.551Z,0.57
2022-12-03T17:28:11.798Z,0.60
2022-12-03T17:32:24.074Z,0.76
2022-12-03T17:36:36.353Z,0.61
2022-12-03T17:40:48.627Z,0.59
2022-12-03T17:45:00.971Z,0.64
2022-12-03T17:49:13.265Z,0.56
2022-12-03T17:53:25.787Z,0.55
2022-12-03T17:57:39.131Z,0.58
2022-12-03T18:01:51.572Z,0.60
2022-12-03T18:06:04.704Z,0.44
2022-12-03T18:10:17.207Z,0.60
2022-12-03T18:14:29.479Z,0.63
2022-12-03T18:18:42.453Z,0.72
2022-12-03T18:22:54.760Z,0.65
2022-12-03T18:27:10.106Z,0.62
2022-12-03T18:31:23.528Z,0.77
2022-12-03T18:35:35.997Z,0.70
2022-12-03T18:39:53.639Z,0.61
2022-12-03T18:44:10.581Z,0.63
2022-12-03T18:48:23.109Z,0.93
2022-12-03T18:52:35.380Z,0.86
2022-12-03T18:56:47.690Z,0.68
2022-12-03T19:01:00.071Z,0.78
2022-12-03T19:05:12.477Z,0.60
2022-12-03T19:09:24.851Z,0.60
2022-12-03T19:13:37.161Z,0.74
2022-12-03T19:17:50.568Z,0.89
2022-12-03T19:22:02.942Z,0.97
2022-12-03T19:26:15.715Z,0.95
2022-12-03T19:30:27.997Z,0.92
2022-12-03T19:34:40.372Z,0.75
2022-12-03T19:38:57.091Z,0.72
2022-12-03T19:43:09.972Z,0.82
2022-12-03T19:47:25.354Z,0.79
2022-12-03T19:51:37.993Z,0.86
2022-12-03T19:55:50.393Z,0.80
2022-12-03T20:00:13.279Z,0.74
2022-12-03T20:04:25.594Z,0.77
2022-12-03T20:08:38.630Z,0.61
2022-12-03T20:12:50.894Z,0.80
2022-12-03T20:17:03.285Z,0.80
2022-12-03T20:21:17.121Z,1.02
2022-12-03T20:25:29.378Z,0.89
2022-12-03T20:29:42.067Z,1.01
2022-12-03T20:33:56.927Z,1.05
2022-12-03T20:38:09.218Z,0.96
2022-12-03T20:42:21.511Z,0.94
2022-12-03T20:46:34.393Z,0.96
2022-12-03T20:50:46.804Z,1.05
2022-12-03T20:54:59.071Z,1.17
2022-12-03T20:59:14.056Z,1.08
2022-12-03T21:03:28.245Z,0.89
2022-12-03T21:07:40.677Z,0.83
2022-12-03T21:11:53.119Z,0.85
2022-12-03T21:16:07.786Z,0.99
2022-12-03T21:20:23.015Z,0.84
2022-12-03T21:24:35.496Z,0.80
2022-12-03T21:28:49.401Z,0.86
2022-12-03T21:33:11.705Z,0.96
2022-12-03T21:37:23.959Z,0.98
2022-12-03T21:41:36.448Z,0.91
2022-12-03T21:45:49.017Z,0.93
2022-12-03T21:50:01.398Z,0.96
2022-12-03T21:54:13.670Z,0.99
2022-12-03T21:58:26.364Z,1.12
2022-12-03T22:02:40.978Z,1.12
2022-12-03T22:06:53.295Z,0.99
2022-12-03T22:11:11.967Z,1.05
2022-12-03T22:15:24.233Z,1.03
2022-12-03T22:19:37.239Z,0.99
2022-12-03T22:23:49.493Z,1.05
2022-12-03T22:28:01.791Z,1.13
2022-12-03T22:32:14.045Z,0.98
2022-12-03T22:36:26.323Z,1.09
2022-12-03T22:40:40.392Z,1.16
2022-12-03T22:44:52.760Z,1.19
2022-12-03T22:49:07.437Z,1.12
2022-12-03T22:53:20.699Z,1.09
2022-12-03T22:57:33.108Z,1.06
2022-12-03T23:01:48.745Z,1.00
2022-12-03T23:06:01.124Z,1.30
2022-12-03T23:10:13.407Z,1.37
2022-12-03T23:14:28.593Z,1.43
2022-12-03T23:18:40.874Z,1.28
2022-12-03T23:22:53.731Z,1.47
2022-12-03T23:27:06.020Z,1.36
2022-12-03T23:31:18.293Z,1.27
2022-12-03T23:35:30.758Z,1.39
2022-12-03T23:39:43.275Z,1.32
2022-12-03T23:43:57.297Z,1.19
2022-12-03T23:48:10.228Z,1.03
2022-12-03T23:52:22.507Z,1.05
2022-12-03T23:56:40.320Z,1.06
